Ball, North Carolina
Current Conditions -  °F | °C
As of 8:15 AM on Sunday 21 Dec 2014 (Local Time) from KGEV Reporting Station
Haze Haze  
Wind Chill: 34°   Ceiling: 2200
Heat Index: 34°   Visibility: 5mi
Dew Point: 33°   Wind: 0mph
Humidity: 96%   Direction: NA
Pressure: 30.18"   Gusts: NA
Location:  36.524°N, 81.538°W
Report Text: KGEV 211315Z AUTO 00000KT 5SM BR OVC022 01/01 A3018 RMK AO2 T00110005
Loading
Personal Weather Stations






























Interactive Weather Map New forecast layout! Learn more

10-Day Weather Forecast

Advertisements
Track Severe Weather on mobile